createdAt,value
2023-01-10T00:01:37.679Z,1011.79
2023-01-10T00:06:38.819Z,1011.77
2023-01-10T00:11:39.945Z,1011.80
2023-01-10T00:16:41.084Z,1011.81
2023-01-10T00:21:44.369Z,1012.00
2023-01-10T00:26:44.534Z,1011.93
2023-01-10T00:31:43.763Z,1012.11
2023-01-10T00:36:44.903Z,1012.25
2023-01-10T00:41:46.071Z,1012.32
2023-01-10T00:46:47.214Z,1012.56
2023-01-10T00:51:49.387Z,1012.62
2023-01-10T00:56:48.557Z,1012.58
2023-01-10T01:01:51.863Z,1012.76
2023-01-10T01:06:51.070Z,1012.99
2023-01-10T01:11:52.264Z,1013.17
2023-01-10T01:16:54.414Z,1013.22
2023-01-10T01:21:53.562Z,1013.27
2023-01-10T01:26:54.723Z,1013.34
2023-01-10T01:31:56.144Z,1013.56
2023-01-10T01:36:55.387Z,1013.68
2023-01-10T01:41:57.500Z,1013.79
2023-01-10T01:46:56.625Z,1013.87
2023-01-10T01:51:57.733Z,1014.00
2023-01-10T01:56:58.835Z,1014.12
2023-01-10T02:02:01.031Z,1014.21
2023-01-10T02:07:00.186Z,1014.29
2023-01-10T02:12:01.324Z,1014.46
2023-01-10T02:17:02.487Z,1014.48
2023-01-10T02:22:03.657Z,1014.61
2023-01-10T02:27:04.817Z,1014.63
2023-01-10T02:32:05.975Z,1014.72
2023-01-10T02:37:07.114Z,1014.69
2023-01-10T02:42:08.236Z,1014.74
2023-01-10T02:47:09.430Z,1014.76
2023-01-10T02:52:10.563Z,1014.90
2023-01-10T02:57:11.745Z,1015.05
2023-01-10T03:02:12.932Z,1015.12
2023-01-10T03:07:14.099Z,1015.20
2023-01-10T03:12:15.220Z,1015.49
2023-01-10T03:17:16.329Z,1015.60
2023-01-10T03:22:17.428Z,1015.77
2023-01-10T03:27:19.570Z,1015.91
2023-01-10T03:32:19.748Z,1016.03
2023-01-10T03:37:18.855Z,1016.09
2023-01-10T03:42:20.982Z,1016.23
2023-01-10T03:47:20.144Z,1016.33
2023-01-10T03:52:21.350Z,1016.42
2023-01-10T03:57:22.493Z,1016.45
2023-01-10T04:02:23.610Z,1016.53
2023-01-10T04:07:24.713Z,1016.65
2023-01-10T04:12:25.882Z,1016.76
2023-01-10T04:17:27.028Z,1016.83
2023-01-10T04:22:28.250Z,1016.85
2023-01-10T04:27:29.408Z,1016.93
2023-01-10T04:32:31.509Z,1016.99
2023-01-10T04:37:31.665Z,1017.10
2023-01-10T04:42:30.858Z,1017.16
2023-01-10T04:47:31.994Z,1017.11
2023-01-10T04:52:33.137Z,1017.25
2023-01-10T04:57:34.287Z,1017.49
2023-01-10T05:02:36.508Z,1017.54
2023-01-10T05:07:36.680Z,1017.77
2023-01-10T05:12:36.911Z,1017.80
2023-01-10T05:17:36.054Z,1017.84
2023-01-10T05:22:37.252Z,1018.03
2023-01-10T05:27:38.432Z,1018.07
2023-01-10T05:32:39.612Z,1018.11
2023-01-10T05:37:40.815Z,1018.30
2023-01-10T05:42:42.974Z,1018.37
2023-01-10T05:47:42.116Z,1018.44
2023-01-10T05:52:43.305Z,1018.57
2023-01-10T05:57:44.502Z,1018.62
2023-01-10T06:02:45.781Z,1018.70
2023-01-10T06:07:46.969Z,1018.77
2023-01-10T06:12:49.104Z,1018.90
2023-01-10T06:17:49.234Z,1019.02
2023-01-10T06:22:48.367Z,1019.08
2023-01-10T06:27:49.509Z,1019.19
2023-01-10T06:32:51.054Z,1019.28
2023-01-10T06:37:50.177Z,1019.35
2023-01-10T06:42:51.308Z,1019.38
2023-01-10T06:47:52.416Z,1019.46
2023-01-10T06:52:53.872Z,1019.44
2023-01-10T06:57:55.037Z,1019.56
2023-01-10T07:02:56.202Z,1019.68
2023-01-10T07:07:57.350Z,1019.69
2023-01-10T07:12:58.503Z,1019.84
2023-01-10T07:17:59.666Z,1020.00
2023-01-10T07:23:00.853Z,1020.13
2023-01-10T07:28:01.979Z,1020.24
2023-01-10T07:33:03.086Z,1020.36
2023-01-10T07:38:04.202Z,1020.39
2023-01-10T07:43:06.330Z,1020.55
2023-01-10T07:48:05.414Z,1020.73
2023-01-10T07:53:07.572Z,1020.76
2023-01-10T07:58:06.766Z,1020.81
2023-01-10T08:03:09.911Z,1020.85
2023-01-10T08:08:09.072Z,1020.99
2023-01-10T08:13:18.916Z,1020.96
2023-01-10T08:18:11.230Z,1021.05
2023-01-10T08:23:12.416Z,1021.01
2023-01-10T08:28:14.528Z,1021.07
2023-01-10T08:33:13.658Z,1021.26
2023-01-10T08:38:15.871Z,1021.38
2023-01-10T08:43:15.015Z,1021.40
2023-01-10T08:48:15.099Z,1021.40
2023-01-10T08:53:16.233Z,1021.53
2023-01-10T08:58:17.382Z,1021.58
2023-01-10T09:03:18.592Z,1021.63
2023-01-10T09:08:19.730Z,1021.58
2023-01-10T09:13:20.863Z,1021.69
2023-01-10T09:18:22.000Z,1021.72
2023-01-10T09:23:23.176Z,1021.81
2023-01-10T09:28:25.343Z,1021.82
2023-01-10T09:33:25.318Z,1021.92
2023-01-10T09:38:26.550Z,1021.93
2023-01-10T09:43:25.723Z,1022.05
2023-01-10T09:48:26.852Z,1022.06
2023-01-10T09:53:27.981Z,1022.12
2023-01-10T09:58:30.091Z,1022.10
2023-01-10T10:03:29.311Z,1022.13
2023-01-10T10:08:32.535Z,1022.09
2023-01-10T10:13:31.630Z,1022.07
2023-01-10T10:18:32.767Z,1022.04
2023-01-10T10:23:34.547Z,1022.13
2023-01-10T10:28:34.459Z,1022.15
2023-01-10T10:33:34.820Z,1022.10
2023-01-10T10:38:36.045Z,1022.12
2023-01-10T10:43:37.247Z,1022.11
2023-01-10T10:48:38.446Z,1022.04
2023-01-10T10:53:39.595Z,1022.05
2023-01-10T10:58:40.758Z,1022.08
2023-01-10T11:03:41.904Z,1022.03
2023-01-10T11:08:43.048Z,1021.98
2023-01-10T11:13:45.233Z,1021.98
2023-01-10T11:18:45.393Z,1021.99
2023-01-10T11:23:44.526Z,1022.04
2023-01-10T11:28:45.643Z,1022.00
2023-01-10T11:33:46.766Z,1022.08
2023-01-10T11:38:48.859Z,1022.10
2023-01-10T11:43:48.015Z,1022.05
2023-01-10T11:49:07.203Z,1022.03
2023-01-10T11:53:49.162Z,1022.02
2023-01-10T11:58:50.387Z,1021.94
2023-01-10T12:03:51.504Z,1021.88
2023-01-10T12:08:53.679Z,1021.83
2023-01-10T12:13:52.782Z,1021.85
2023-01-10T12:18:59.921Z,1021.88
2023-01-10T12:23:57.074Z,1021.89
2023-01-10T12:28:58.590Z,1021.79
2023-01-10T12:33:56.947Z,1021.83
2023-01-10T12:38:56.049Z,1021.71
2023-01-10T12:43:57.154Z,1021.71
2023-01-10T12:49:02.221Z,1021.71
2023-01-10T12:54:00.451Z,1021.84
2023-01-10T12:58:59.666Z,1021.73
2023-01-10T13:04:01.112Z,1021.53
2023-01-10T13:09:00.256Z,1021.60
2023-01-10T13:14:01.374Z,1021.46
2023-01-10T13:19:02.523Z,1021.40
2023-01-10T13:24:03.694Z,1021.40
2023-01-10T13:29:05.852Z,1021.32
2023-01-10T13:34:05.283Z,1021.18
2023-01-10T13:39:06.437Z,1021.11
2023-01-10T13:44:07.663Z,1021.12
2023-01-10T13:49:09.820Z,1021.04
2023-01-10T13:54:09.959Z,1021.08
2023-01-10T13:59:09.126Z,1021.09
2023-01-10T14:04:10.302Z,1021.02
2023-01-10T14:09:11.457Z,1021.09
2023-01-10T14:14:12.615Z,1021.06
2023-01-10T14:19:13.863Z,1021.01
2023-01-10T14:24:15.997Z,1021.01
2023-01-10T14:29:16.145Z,1020.92
2023-01-10T14:34:16.241Z,1021.13
2023-01-10T14:39:15.360Z,1021.17
2023-01-10T14:44:17.493Z,1021.12
2023-01-10T14:49:17.619Z,1020.98
2023-01-10T14:54:16.720Z,1021.09
2023-01-10T14:59:18.819Z,1021.05
2023-01-10T15:04:18.957Z,1021.07
2023-01-10T15:09:18.123Z,1021.11
2023-01-10T15:14:19.294Z,1021.02
2023-01-10T15:19:20.420Z,1020.95
2023-01-10T15:24:20.555Z,1020.92
2023-01-10T15:29:21.682Z,1021.00
2023-01-10T15:34:22.769Z,1020.96
2023-01-10T15:39:24.930Z,1020.96
2023-01-10T15:44:24.046Z,1020.86
2023-01-10T15:49:25.153Z,1020.82
2023-01-10T15:54:26.339Z,1020.82
2023-01-10T15:59:27.564Z,1020.75
2023-01-10T16:04:28.852Z,1020.68
2023-01-10T16:09:30.060Z,1020.67
2023-01-10T16:14:31.266Z,1020.62
2023-01-10T16:19:32.374Z,1020.52
2023-01-10T16:24:33.571Z,1020.58
2023-01-10T16:29:34.746Z,1020.31
2023-01-10T16:34:35.947Z,1020.51
2023-01-10T16:39:38.125Z,1020.48
2023-01-10T16:44:37.286Z,1020.42
2023-01-10T16:49:38.384Z,1020.39
2023-01-10T16:54:39.542Z,1020.42
2023-01-10T16:59:40.690Z,1020.29
2023-01-10T17:04:41.836Z,1020.30
2023-01-10T17:09:42.987Z,1020.33
2023-01-10T17:14:44.112Z,1020.33
2023-01-10T17:19:45.319Z,1020.27
2023-01-10T17:24:46.473Z,1020.33
2023-01-10T17:29:47.608Z,1020.31
2023-01-10T17:34:48.835Z,1020.40
2023-01-10T17:39:49.993Z,1020.50
2023-01-10T17:44:51.292Z,1020.57
2023-01-10T17:49:52.502Z,1020.53
2023-01-10T17:54:54.620Z,1020.47
2023-01-10T17:59:54.738Z,1020.34
2023-01-10T18:04:53.884Z,1020.40
2023-01-10T18:09:55.101Z,1020.25
2023-01-10T18:14:56.244Z,1020.20
2023-01-10T18:19:57.527Z,1020.30
2023-01-10T18:24:58.669Z,1020.38
2023-01-10T18:30:00.784Z,1020.11
2023-01-10T18:35:02.142Z,1020.24
2023-01-10T18:40:01.281Z,1020.15
2023-01-10T18:45:02.411Z,1020.08
2023-01-10T18:50:04.524Z,1020.08
2023-01-10T18:55:03.705Z,1020.09
2023-01-10T19:00:04.822Z,1020.09
2023-01-10T19:05:06.176Z,1020.05
2023-01-10T19:10:07.604Z,1020.11
2023-01-10T19:15:08.818Z,1020.03
2023-01-10T19:20:09.986Z,1020.03
2023-01-10T19:25:11.376Z,1019.93
2023-01-10T19:30:11.875Z,1019.78
2023-01-10T19:35:11.342Z,1019.75
2023-01-10T19:40:10.536Z,1019.79
2023-01-10T19:45:11.691Z,1019.88
2023-01-10T19:50:13.855Z,1019.83
2023-01-10T19:55:13.272Z,1019.70
2023-01-10T20:00:12.554Z,1019.79
2023-01-10T20:05:16.054Z,1019.80
2023-01-10T20:10:13.212Z,1019.88
2023-01-10T20:15:14.438Z,1019.98
2023-01-10T20:20:15.729Z,1020.01
2023-01-10T20:25:17.147Z,1020.05
2023-01-10T20:30:18.396Z,1020.00
2023-01-10T20:35:20.562Z,1020.04
2023-01-10T20:40:19.782Z,1020.05
2023-01-10T20:45:22.896Z,1019.95
2023-01-10T20:50:22.119Z,1019.95
2023-01-10T20:55:23.481Z,1019.88
2023-01-10T21:00:24.707Z,1019.83
2023-01-10T21:05:25.897Z,1019.67
2023-01-10T21:10:27.076Z,1019.70
2023-01-10T21:15:28.171Z,1019.86
2023-01-10T21:20:29.415Z,1019.84
2023-01-10T21:25:31.587Z,1019.91
2023-01-10T21:30:30.736Z,1020.04
2023-01-10T21:35:31.948Z,1020.02
2023-01-10T21:40:33.028Z,1019.95
2023-01-10T21:45:34.228Z,1019.96
2023-01-10T21:50:35.310Z,1019.90
2023-01-10T21:55:38.410Z,1019.94
2023-01-10T22:00:37.694Z,1019.94
2023-01-10T22:05:38.882Z,1019.92
2023-01-10T22:10:40.986Z,1019.96
2023-01-10T22:15:40.166Z,1019.90
2023-01-10T22:20:41.300Z,1019.91
2023-01-10T22:25:42.497Z,1019.83
2023-01-10T22:30:43.682Z,1019.80
2023-01-10T22:35:44.857Z,1019.83
2023-01-10T22:40:45.989Z,1019.80
2023-01-10T22:45:47.237Z,1019.81
2023-01-10T22:50:48.389Z,1019.78
2023-01-10T22:55:49.582Z,1019.67
2023-01-10T23:00:52.687Z,1019.47
2023-01-10T23:05:51.826Z,1019.42
2023-01-10T23:10:52.977Z,1019.44
2023-01-10T23:15:54.086Z,1019.39
2023-01-10T23:20:55.193Z,1019.27
2023-01-10T23:25:57.398Z,1019.28
2023-01-10T23:30:57.477Z,1019.36
2023-01-10T23:35:56.924Z,1019.15
2023-01-10T23:40:58.989Z,1019.13
2023-01-10T23:45:58.127Z,1019.17
2023-01-10T23:50:59.289Z,1019.05
2023-01-10T23:56:00.442Z,1019.09
